aviador You're here:

LFSX Decoded Metar

LUXEUIL in FRANCE
Report Time2017-08-24 03:00:00
UTC Time2017-08-24 03:11:06
Flight Rules mvfr MVFR
WindCalm
Visibility9999 m
Phenomena:N/A
Clouds:Overcast 025 Hf
Expected CloudBase > 400 ft AGL from Temp-Dew spread
Ceiling2,500 ft
Temp16°C (ISA +3)
Dew Point15°C (94% RH)
QNH1018 hPa
Density Alt1,286 ft
Elevation896 ft
Report Wrong Elevation
Raw Report
LFSX 240300Z AUTO 00000KT 9999 OVC025 16/15 Q1018=

Extra information for LFSX:More info

Metar Taf Metar & Taf Last 4 Metars F.Rules Stats Wind Profile Meteogram Temp Stats Airport Information Weather charts Add Link Nearby VenuesMetar ALERT Operation Metar Decoded Social comments